AAL982 KDEN-KDFW
Flight info
| Callsign | AAL982 |
|---|---|
| Flight time | 1h 27m |
| Altitude | 33000 |
| Route | SLEEK2 SLEEK EZEEE MDANO JOVEM6 |
| Aircraft | A321/M-SDE3FGHIRWY/LB1 |
Departure
| Time | 2026-04-30 19:57 |
|---|---|
| Airport | Denver International Airport (KDEN) |
Arrival
| Time | 2026-04-30 21:24 |
|---|---|
| Airport | Dallas Fort Worth International Airport (KDFW) |
| Time | Latitude | Longitude | Altitude | Speed | Heading |
|---|---|---|---|---|---|
| 2026-04-30 19:20 | 39.86254 | -104.67528 | 5366 ft | 0 kts | 1° |
| 2026-04-30 19:42 | 39.86251 | -104.67528 | 5362 ft | 2 kts | 1° |
| 2026-04-30 19:42 | 39.86225 | -104.67529 | 5363 ft | 4 kts | 11° |
| 2026-04-30 19:42 | 39.86203 | -104.67543 | 5364 ft | 4 kts | 52° |
| 2026-04-30 19:42 | 39.86194 | -104.67569 | 5362 ft | 1 kts | 90° |
| 2026-04-30 19:46 | 39.86194 | -104.67567 | 5366 ft | 1 kts | 90° |
| 2026-04-30 19:46 | 39.86194 | -104.67550 | 5363 ft | 3 kts | 90° |
| 2026-04-30 19:47 | 39.86194 | -104.67518 | 5366 ft | 4 kts | 91° |
| 2026-04-30 19:47 | 39.86186 | -104.67494 | 5366 ft | 5 kts | 123° |
| 2026-04-30 19:47 | 39.86151 | -104.67459 | 5363 ft | 6 kts | 144° |
| 2026-04-30 19:47 | 39.86135 | -104.67411 | 5365 ft | 7 kts | 95° |
| 2026-04-30 19:48 | 39.86134 | -104.67345 | 5365 ft | 8 kts | 91° |
| 2026-04-30 19:48 | 39.86133 | -104.67269 | 5366 ft | 9 kts | 90° |
| 2026-04-30 19:48 | 39.86132 | -104.67182 | 5364 ft | 10 kts | 90° |
| 2026-04-30 19:48 | 39.86132 | -104.67084 | 5366 ft | 11 kts | 90° |
| 2026-04-30 19:49 | 39.86131 | -104.66979 | 5366 ft | 12 kts | 90° |
| 2026-04-30 19:49 | 39.86130 | -104.66751 | 5366 ft | 10 kts | 90° |
| 2026-04-30 19:49 | 39.86129 | -104.66656 | 5366 ft | 11 kts | 91° |
| 2026-04-30 19:50 | 39.86123 | -104.66567 | 5366 ft | 10 kts | 105° |
| 2026-04-30 19:50 | 39.86109 | -104.66474 | 5366 ft | 11 kts | 92° |
| 2026-04-30 19:50 | 39.86107 | -104.66370 | 5365 ft | 12 kts | 91° |
| 2026-04-30 19:50 | 39.86108 | -104.66271 | 5366 ft | 8 kts | 81° |
| 2026-04-30 19:51 | 39.86153 | -104.66228 | 5365 ft | 9 kts | 7° |
| 2026-04-30 19:51 | 39.86197 | -104.66227 | 5363 ft | 10 kts | 0° |
| 2026-04-30 19:51 | 39.86273 | -104.66226 | 5365 ft | 12 kts | 0° |
| 2026-04-30 19:51 | 39.86357 | -104.66225 | 5364 ft | 13 kts | 0° |
| 2026-04-30 19:52 | 39.86450 | -104.66224 | 5365 ft | 14 kts | 0° |
| 2026-04-30 19:52 | 39.86550 | -104.66222 | 5364 ft | 15 kts | 0° |
| 2026-04-30 19:52 | 39.86657 | -104.66221 | 5364 ft | 16 kts | 0° |
| 2026-04-30 19:52 | 39.86770 | -104.66220 | 5363 ft | 17 kts | 0° |
| 2026-04-30 19:53 | 39.86889 | -104.66219 | 5364 ft | 18 kts | 0° |
| 2026-04-30 19:53 | 39.87014 | -104.66217 | 5362 ft | 18 kts | 0° |
| 2026-04-30 19:53 | 39.87143 | -104.66215 | 5365 ft | 19 kts | 0° |
| 2026-04-30 19:53 | 39.87277 | -104.66214 | 5364 ft | 19 kts | 0° |
| 2026-04-30 19:54 | 39.87405 | -104.66212 | 5365 ft | 17 kts | 0° |
| 2026-04-30 19:54 | 39.87499 | -104.66211 | 5363 ft | 12 kts | 0° |
| 2026-04-30 19:54 | 39.87570 | -104.66210 | 5365 ft | 10 kts | 0° |
| 2026-04-30 19:54 | 39.87637 | -104.66208 | 5365 ft | 10 kts | 1° |
| 2026-04-30 19:55 | 39.87709 | -104.66208 | 5365 ft | 11 kts | 0° |
| 2026-04-30 19:55 | 39.87758 | -104.66200 | 5364 ft | 5 kts | 42° |
| 2026-04-30 19:55 | 39.87761 | -104.66175 | 5365 ft | 0 kts | 89° |
| 2026-04-30 19:56 | 39.87761 | -104.66167 | 5365 ft | 10 kts | 89° |
| 2026-04-30 19:56 | 39.87759 | -104.65743 | 5365 ft | 81 kts | 90° |
| 2026-04-30 19:56 | 39.87751 | -104.64738 | 5364 ft | 139 kts | 90° |
| 2026-04-30 19:56 | 39.87741 | -104.63263 | 5381 ft | 184 kts | 90° |
| 2026-04-30 19:57 | 39.87741 | -104.61588 | 6086 ft | 184 kts | 89° |
| 2026-04-30 19:57 | 39.87473 | -104.59962 | 6933 ft | 185 kts | 108° |
| 2026-04-30 19:57 | 39.86959 | -104.58375 | 7394 ft | 197 kts | 111° |
| 2026-04-30 19:57 | 39.86368 | -104.56670 | 7520 ft | 216 kts | 112° |
| 2026-04-30 19:58 | 39.85736 | -104.54802 | 7653 ft | 235 kts | 111° |
| 2026-04-30 19:58 | 39.85066 | -104.52747 | 7788 ft | 258 kts | 110° |
| 2026-04-30 19:58 | 39.84370 | -104.50539 | 8215 ft | 268 kts | 110° |
| 2026-04-30 19:58 | 39.83669 | -104.48266 | 8743 ft | 273 kts | 110° |
| 2026-04-30 19:59 | 39.82970 | -104.45956 | 9364 ft | 275 kts | 109° |
| 2026-04-30 19:59 | 39.82274 | -104.43628 | 9990 ft | 277 kts | 109° |
| 2026-04-30 19:59 | 39.80160 | -104.39192 | 10316 ft | 317 kts | 145° |
| 2026-04-30 20:00 | 39.78109 | -104.37936 | 10447 ft | 336 kts | 158° |
| 2026-04-30 20:00 | 39.75842 | -104.36990 | 10745 ft | 346 kts | 163° |
| 2026-04-30 20:00 | 39.73474 | -104.36362 | 11252 ft | 351 kts | 175° |
| 2026-04-30 20:00 | 39.71026 | -104.36477 | 11777 ft | 354 kts | 187° |
| 2026-04-30 20:01 | 39.66295 | -104.38337 | 12888 ft | 358 kts | 201° |
| 2026-04-30 20:01 | 39.63972 | -104.39535 | 13457 ft | 360 kts | 201° |
| 2026-04-30 20:01 | 39.61608 | -104.40752 | 14031 ft | 362 kts | 201° |
| 2026-04-30 20:02 | 39.56904 | -104.43181 | 14970 ft | 366 kts | 203° |
| 2026-04-30 20:02 | 39.54514 | -104.44252 | 15420 ft | 370 kts | 196° |
| 2026-04-30 20:03 | 39.49345 | -104.44672 | 16311 ft | 379 kts | 175° |
| 2026-04-30 20:03 | 39.46732 | -104.44064 | 16758 ft | 383 kts | 171° |
| 2026-04-30 20:03 | 39.44101 | -104.43417 | 17215 ft | 385 kts | 171° |
| 2026-04-30 20:03 | 39.41449 | -104.42773 | 17652 ft | 388 kts | 172° |
| 2026-04-30 20:04 | 39.38783 | -104.42130 | 18097 ft | 391 kts | 172° |
| 2026-04-30 20:04 | 39.36102 | -104.41484 | 18514 ft | 393 kts | 171° |
| 2026-04-30 20:04 | 39.33404 | -104.40831 | 18918 ft | 394 kts | 172° |
| 2026-04-30 20:05 | 39.27996 | -104.39527 | 19725 ft | 397 kts | 172° |
| 2026-04-30 20:05 | 39.25274 | -104.38870 | 20125 ft | 398 kts | 172° |
| 2026-04-30 20:05 | 39.19802 | -104.37553 | 20928 ft | 402 kts | 173° |
| 2026-04-30 20:06 | 39.17050 | -104.36897 | 21322 ft | 403 kts | 173° |
| 2026-04-30 20:06 | 39.14279 | -104.36236 | 21710 ft | 405 kts | 172° |
| 2026-04-30 20:06 | 39.11507 | -104.35487 | 22053 ft | 408 kts | 170° |
| 2026-04-30 20:06 | 39.08737 | -104.34627 | 22410 ft | 411 kts | 169° |
| 2026-04-30 20:07 | 39.05964 | -104.33702 | 22769 ft | 413 kts | 168° |
| 2026-04-30 20:07 | 39.03179 | -104.32753 | 23120 ft | 415 kts | 168° |
| 2026-04-30 20:07 | 38.97572 | -104.30874 | 23829 ft | 418 kts | 169° |
| 2026-04-30 20:08 | 38.94744 | -104.29955 | 24108 ft | 420 kts | 169° |
| 2026-04-30 20:08 | 38.91894 | -104.29043 | 24386 ft | 422 kts | 171° |
| 2026-04-30 20:08 | 38.89027 | -104.28139 | 24609 ft | 426 kts | 171° |
| 2026-04-30 20:08 | 38.86136 | -104.27232 | 24870 ft | 428 kts | 171° |
| 2026-04-30 20:09 | 38.83232 | -104.26320 | 25150 ft | 430 kts | 172° |
| 2026-04-30 20:09 | 38.80318 | -104.25403 | 25423 ft | 432 kts | 172° |
| 2026-04-30 20:09 | 38.74453 | -104.23540 | 25950 ft | 436 kts | 172° |
| 2026-04-30 20:10 | 38.68536 | -104.21655 | 26444 ft | 439 kts | 174° |
| 2026-04-30 20:10 | 38.65554 | -104.20708 | 26709 ft | 441 kts | 174° |
| 2026-04-30 20:10 | 38.62568 | -104.19763 | 26966 ft | 443 kts | 174° |
| 2026-04-30 20:11 | 38.56551 | -104.17866 | 27475 ft | 446 kts | 175° |
| 2026-04-30 20:11 | 38.53534 | -104.16858 | 27733 ft | 452 kts | 171° |
| 2026-04-30 20:11 | 38.50583 | -104.15303 | 27969 ft | 466 kts | 161° |
| 2026-04-30 20:12 | 38.45217 | -104.10300 | 28407 ft | 486 kts | 148° |
| 2026-04-30 20:12 | 38.42637 | -104.07495 | 28659 ft | 488 kts | 149° |
| 2026-04-30 20:12 | 38.40045 | -104.04696 | 28834 ft | 490 kts | 149° |
| 2026-04-30 20:13 | 38.37432 | -104.01891 | 29037 ft | 491 kts | 150° |
| 2026-04-30 20:13 | 38.34810 | -103.99085 | 29241 ft | 493 kts | 150° |
| 2026-04-30 20:13 | 38.32178 | -103.96272 | 29435 ft | 495 kts | 150° |
| 2026-04-30 20:13 | 38.29537 | -103.93450 | 29610 ft | 496 kts | 150° |
| 2026-04-30 20:14 | 38.26888 | -103.90622 | 29740 ft | 498 kts | 151° |
| 2026-04-30 20:14 | 38.24234 | -103.87786 | 29948 ft | 498 kts | 151° |
| 2026-04-30 20:14 | 38.21614 | -103.84982 | 30202 ft | 498 kts | 151° |
| 2026-04-30 20:14 | 38.18926 | -103.82102 | 30378 ft | 499 kts | 151° |
| 2026-04-30 20:15 | 38.16269 | -103.79256 | 30560 ft | 500 kts | 151° |
| 2026-04-30 20:15 | 38.13608 | -103.76412 | 30741 ft | 500 kts | 151° |
| 2026-04-30 20:15 | 38.10944 | -103.73573 | 30927 ft | 500 kts | 151° |
| 2026-04-30 20:15 | 38.08276 | -103.70736 | 31070 ft | 500 kts | 152° |
| 2026-04-30 20:16 | 38.05601 | -103.67894 | 31215 ft | 502 kts | 152° |
| 2026-04-30 20:16 | 38.02924 | -103.65054 | 31374 ft | 502 kts | 152° |
| 2026-04-30 20:16 | 38.00240 | -103.62207 | 31541 ft | 503 kts | 152° |
| 2026-04-30 20:16 | 37.97558 | -103.59361 | 31716 ft | 503 kts | 152° |
| 2026-04-30 20:17 | 37.94874 | -103.56521 | 31846 ft | 503 kts | 152° |
| 2026-04-30 20:17 | 37.92186 | -103.53679 | 32009 ft | 503 kts | 152° |
| 2026-04-30 20:17 | 37.89500 | -103.50840 | 32199 ft | 503 kts | 152° |
| 2026-04-30 20:17 | 37.86810 | -103.47997 | 32316 ft | 504 kts | 152° |
| 2026-04-30 20:18 | 37.84112 | -103.45149 | 32444 ft | 505 kts | 152° |
| 2026-04-30 20:18 | 37.81409 | -103.42297 | 32603 ft | 506 kts | 152° |
| 2026-04-30 20:18 | 37.78705 | -103.39449 | 32768 ft | 506 kts | 152° |
| 2026-04-30 20:18 | 37.76035 | -103.36635 | 32945 ft | 506 kts | 152° |
| 2026-04-30 20:19 | 37.73328 | -103.33786 | 33090 ft | 506 kts | 152° |
| 2026-04-30 20:19 | 37.67958 | -103.28148 | 33109 ft | 500 kts | 152° |
| 2026-04-30 20:20 | 37.62605 | -103.22552 | 33102 ft | 499 kts | 152° |
| 2026-04-30 20:20 | 37.57254 | -103.16971 | 33104 ft | 499 kts | 152° |
| 2026-04-30 20:21 | 37.51901 | -103.11394 | 33091 ft | 499 kts | 152° |
| 2026-04-30 20:21 | 37.46549 | -103.05808 | 33088 ft | 500 kts | 152° |
| 2026-04-30 20:22 | 37.41196 | -103.00230 | 33059 ft | 500 kts | 152° |
| 2026-04-30 20:22 | 37.35788 | -102.94633 | 33061 ft | 500 kts | 152° |
| 2026-04-30 20:23 | 37.30452 | -102.89111 | 33073 ft | 501 kts | 152° |
| 2026-04-30 20:23 | 37.27722 | -102.86287 | 33184 ft | 503 kts | 152° |
| 2026-04-30 20:23 | 37.25017 | -102.83491 | 33260 ft | 504 kts | 153° |
| 2026-04-30 20:23 | 37.22345 | -102.80734 | 33388 ft | 505 kts | 153° |
| 2026-04-30 20:24 | 37.19593 | -102.77903 | 33532 ft | 505 kts | 153° |
| 2026-04-30 20:24 | 37.16874 | -102.75107 | 33700 ft | 506 kts | 153° |
| 2026-04-30 20:24 | 37.14187 | -102.72345 | 33827 ft | 506 kts | 153° |
| 2026-04-30 20:24 | 37.11460 | -102.69548 | 33979 ft | 507 kts | 153° |
| 2026-04-30 20:25 | 37.06003 | -102.63941 | 34282 ft | 506 kts | 153° |
| 2026-04-30 20:26 | 36.97818 | -102.55553 | 34656 ft | 506 kts | 153° |
| 2026-04-30 20:26 | 36.92370 | -102.49991 | 34957 ft | 505 kts | 153° |
| 2026-04-30 20:26 | 36.89643 | -102.47210 | 35040 ft | 506 kts | 153° |
| 2026-04-30 20:27 | 36.79651 | -102.37034 | 35045 ft | 506 kts | 153° |
| 2026-04-30 20:28 | 36.68715 | -102.25942 | 35043 ft | 506 kts | 153° |
| 2026-04-30 20:30 | 36.55027 | -102.12133 | 35034 ft | 507 kts | 153° |
| 2026-04-30 20:31 | 36.38581 | -101.95614 | 35012 ft | 507 kts | 153° |
| 2026-04-30 20:32 | 36.24863 | -101.81885 | 35060 ft | 507 kts | 153° |
| 2026-04-30 20:33 | 36.16626 | -101.73697 | 35019 ft | 506 kts | 153° |
| 2026-04-30 20:34 | 36.08379 | -101.65510 | 35061 ft | 507 kts | 153° |
| 2026-04-30 20:35 | 36.00124 | -101.57342 | 35067 ft | 507 kts | 153° |
| 2026-04-30 20:35 | 35.91856 | -101.49180 | 35029 ft | 507 kts | 153° |
| 2026-04-30 20:36 | 35.86342 | -101.43738 | 35056 ft | 508 kts | 153° |
| 2026-04-30 20:37 | 35.78270 | -101.35156 | 35118 ft | 520 kts | 145° |
| 2026-04-30 20:37 | 35.73198 | -101.28797 | 35123 ft | 520 kts | 145° |
| 2026-04-30 20:38 | 35.68152 | -101.22488 | 35061 ft | 520 kts | 145° |
| 2026-04-30 20:38 | 35.63057 | -101.16140 | 35085 ft | 521 kts | 145° |
| 2026-04-30 20:39 | 35.55420 | -101.06634 | 35106 ft | 521 kts | 145° |
| 2026-04-30 20:40 | 35.47767 | -100.97146 | 35104 ft | 522 kts | 146° |
| 2026-04-30 20:40 | 35.42648 | -100.90814 | 35091 ft | 522 kts | 146° |
| 2026-04-30 20:41 | 35.34981 | -100.81349 | 35073 ft | 522 kts | 146° |
| 2026-04-30 20:41 | 35.29858 | -100.75043 | 35062 ft | 522 kts | 146° |
| 2026-04-30 20:42 | 35.24737 | -100.68744 | 35045 ft | 521 kts | 146° |
| 2026-04-30 20:43 | 35.17069 | -100.59328 | 35069 ft | 520 kts | 146° |
| 2026-04-30 20:43 | 35.11953 | -100.53076 | 35076 ft | 520 kts | 146° |
| 2026-04-30 20:44 | 35.04289 | -100.43746 | 35020 ft | 520 kts | 146° |
| 2026-04-30 20:45 | 34.94083 | -100.31308 | 35067 ft | 517 kts | 146° |
| 2026-04-30 20:45 | 34.88992 | -100.25133 | 35064 ft | 516 kts | 146° |
| 2026-04-30 20:46 | 34.78820 | -100.12826 | 35024 ft | 516 kts | 146° |
| 2026-04-30 20:47 | 34.71166 | -100.03607 | 35025 ft | 517 kts | 146° |
| 2026-04-30 20:48 | 34.63502 | -99.94377 | 35030 ft | 517 kts | 146° |
| 2026-04-30 20:48 | 34.58381 | -99.88231 | 34996 ft | 518 kts | 146° |
| 2026-04-30 20:49 | 34.53249 | -99.82087 | 35004 ft | 519 kts | 146° |
| 2026-04-30 20:50 | 34.45518 | -99.72865 | 35014 ft | 521 kts | 146° |
| 2026-04-30 20:50 | 34.40350 | -99.66700 | 35015 ft | 522 kts | 146° |
| 2026-04-30 20:51 | 34.35176 | -99.60534 | 34976 ft | 523 kts | 145° |
| 2026-04-30 20:51 | 34.30684 | -99.53317 | 35001 ft | 545 kts | 127° |
| 2026-04-30 20:51 | 34.28800 | -99.49329 | 35009 ft | 546 kts | 127° |
| 2026-04-30 20:52 | 34.25027 | -99.41363 | 35013 ft | 546 kts | 127° |
| 2026-04-30 20:53 | 34.19333 | -99.29442 | 35022 ft | 546 kts | 128° |
| 2026-04-30 20:53 | 34.15536 | -99.21491 | 35028 ft | 546 kts | 128° |
| 2026-04-30 20:54 | 34.09832 | -99.09595 | 35013 ft | 546 kts | 128° |
| 2026-04-30 20:55 | 34.04110 | -98.97723 | 35025 ft | 545 kts | 128° |
| 2026-04-30 20:55 | 34.00296 | -98.89824 | 35027 ft | 545 kts | 128° |
| 2026-04-30 20:56 | 33.94551 | -98.77954 | 34812 ft | 555 kts | 128° |
| 2026-04-30 20:56 | 33.90613 | -98.69873 | 34297 ft | 557 kts | 127° |
| 2026-04-30 20:57 | 33.88669 | -98.65861 | 33645 ft | 555 kts | 127° |
| 2026-04-30 20:57 | 33.86722 | -98.61846 | 32808 ft | 556 kts | 127° |
| 2026-04-30 20:57 | 33.84764 | -98.57821 | 31959 ft | 558 kts | 127° |
| 2026-04-30 20:58 | 33.80861 | -98.49828 | 30717 ft | 552 kts | 127° |
| 2026-04-30 20:58 | 33.78916 | -98.45864 | 30093 ft | 549 kts | 127° |
| 2026-04-30 20:58 | 33.76973 | -98.41910 | 29249 ft | 548 kts | 127° |
| 2026-04-30 20:58 | 33.75049 | -98.37990 | 28644 ft | 542 kts | 127° |
| 2026-04-30 20:59 | 33.71259 | -98.30260 | 27455 ft | 533 kts | 126° |
| 2026-04-30 20:59 | 33.69383 | -98.26444 | 26799 ft | 529 kts | 126° |
| 2026-04-30 21:00 | 33.65681 | -98.18918 | 25636 ft | 511 kts | 126° |
| 2026-04-30 21:00 | 33.62159 | -98.11765 | 24488 ft | 485 kts | 126° |
| 2026-04-30 21:01 | 33.58762 | -98.04941 | 23531 ft | 471 kts | 126° |
| 2026-04-30 21:01 | 33.57082 | -98.01593 | 22980 ft | 466 kts | 126° |
| 2026-04-30 21:01 | 33.53798 | -97.95031 | 22060 ft | 453 kts | 126° |
| 2026-04-30 21:02 | 33.52189 | -97.91810 | 21617 ft | 447 kts | 126° |
| 2026-04-30 21:02 | 33.50601 | -97.88632 | 21181 ft | 441 kts | 126° |
| 2026-04-30 21:02 | 33.49040 | -97.85495 | 20753 ft | 436 kts | 126° |
| 2026-04-30 21:02 | 33.47495 | -97.82390 | 20312 ft | 431 kts | 126° |
| 2026-04-30 21:03 | 33.45968 | -97.79322 | 19863 ft | 427 kts | 126° |
| 2026-04-30 21:03 | 33.44449 | -97.76277 | 19418 ft | 423 kts | 126° |
| 2026-04-30 21:03 | 33.42948 | -97.73272 | 18972 ft | 418 kts | 127° |
| 2026-04-30 21:03 | 33.41459 | -97.70294 | 18519 ft | 416 kts | 127° |
| 2026-04-30 21:04 | 33.39975 | -97.67329 | 17985 ft | 415 kts | 127° |
| 2026-04-30 21:04 | 33.38982 | -97.65394 | 17721 ft | 408 kts | 131° |
| 2026-04-30 21:04 | 33.35299 | -97.60506 | 16805 ft | 389 kts | 143° |
| 2026-04-30 21:05 | 33.33375 | -97.58251 | 16359 ft | 385 kts | 143° |
| 2026-04-30 21:05 | 33.31471 | -97.56020 | 15905 ft | 381 kts | 142° |
| 2026-04-30 21:05 | 33.28954 | -97.53065 | 15307 ft | 377 kts | 142° |
| 2026-04-30 21:05 | 33.27719 | -97.51614 | 15004 ft | 375 kts | 142° |
| 2026-04-30 21:06 | 33.25865 | -97.49440 | 14563 ft | 372 kts | 142° |
| 2026-04-30 21:06 | 33.24029 | -97.47289 | 14122 ft | 369 kts | 141° |
| 2026-04-30 21:06 | 33.22207 | -97.45153 | 13755 ft | 364 kts | 141° |
| 2026-04-30 21:06 | 33.20414 | -97.43050 | 13126 ft | 359 kts | 141° |
| 2026-04-30 21:07 | 33.18640 | -97.40974 | 12653 ft | 356 kts | 141° |
| 2026-04-30 21:07 | 33.16884 | -97.38922 | 12359 ft | 348 kts | 141° |
| 2026-04-30 21:07 | 33.15188 | -97.36934 | 12230 ft | 336 kts | 141° |
| 2026-04-30 21:07 | 33.13551 | -97.35017 | 12088 ft | 324 kts | 141° |
| 2026-04-30 21:08 | 33.11968 | -97.33164 | 12008 ft | 315 kts | 141° |
| 2026-04-30 21:08 | 33.10402 | -97.31333 | 12021 ft | 315 kts | 141° |
| 2026-04-30 21:08 | 33.08833 | -97.29512 | 12023 ft | 315 kts | 141° |
| 2026-04-30 21:08 | 33.07261 | -97.27691 | 12024 ft | 315 kts | 141° |
| 2026-04-30 21:09 | 33.05691 | -97.25866 | 12023 ft | 315 kts | 141° |
| 2026-04-30 21:09 | 33.04124 | -97.24044 | 12028 ft | 315 kts | 141° |
| 2026-04-30 21:09 | 33.02554 | -97.22220 | 12028 ft | 315 kts | 141° |
| 2026-04-30 21:09 | 33.00986 | -97.20395 | 12026 ft | 315 kts | 141° |
| 2026-04-30 21:10 | 32.99396 | -97.18615 | 12022 ft | 311 kts | 149° |
| 2026-04-30 21:10 | 32.97546 | -97.17393 | 12025 ft | 299 kts | 169° |
| 2026-04-30 21:10 | 32.95560 | -97.16908 | 11800 ft | 286 kts | 185° |
| 2026-04-30 21:10 | 32.93583 | -97.16801 | 11409 ft | 284 kts | 185° |
| 2026-04-30 21:11 | 32.91614 | -97.16701 | 11046 ft | 283 kts | 185° |
| 2026-04-30 21:11 | 32.89639 | -97.16602 | 10567 ft | 287 kts | 184° |
| 2026-04-30 21:11 | 32.87620 | -97.16500 | 10080 ft | 292 kts | 184° |
| 2026-04-30 21:11 | 32.85558 | -97.16389 | 9660 ft | 293 kts | 183° |
| 2026-04-30 21:12 | 32.83526 | -97.16276 | 9259 ft | 291 kts | 182° |
| 2026-04-30 21:12 | 32.81509 | -97.16164 | 8861 ft | 289 kts | 182° |
| 2026-04-30 21:12 | 32.79507 | -97.16059 | 8494 ft | 286 kts | 183° |
| 2026-04-30 21:12 | 32.77552 | -97.16016 | 8137 ft | 283 kts | 184° |
| 2026-04-30 21:13 | 32.75593 | -97.16015 | 7761 ft | 281 kts | 184° |
| 2026-04-30 21:13 | 32.73622 | -97.16031 | 7405 ft | 278 kts | 184° |
| 2026-04-30 21:13 | 32.71722 | -97.16047 | 7038 ft | 276 kts | 184° |
| 2026-04-30 21:13 | 32.69806 | -97.16059 | 6671 ft | 274 kts | 183° |
| 2026-04-30 21:14 | 32.67910 | -97.16070 | 6322 ft | 271 kts | 183° |
| 2026-04-30 21:14 | 32.66042 | -97.16075 | 6188 ft | 258 kts | 183° |
| 2026-04-30 21:14 | 32.64310 | -97.16073 | 6077 ft | 246 kts | 183° |
| 2026-04-30 21:14 | 32.62659 | -97.16071 | 5980 ft | 230 kts | 182° |
| 2026-04-30 21:15 | 32.61091 | -97.16070 | 5718 ft | 223 kts | 182° |
| 2026-04-30 21:15 | 32.59547 | -97.16072 | 5359 ft | 221 kts | 182° |
| 2026-04-30 21:15 | 32.58012 | -97.16052 | 4988 ft | 221 kts | 178° |
| 2026-04-30 21:15 | 32.56555 | -97.15566 | 4618 ft | 221 kts | 146° |
| 2026-04-30 21:16 | 32.55585 | -97.14204 | 4244 ft | 218 kts | 111° |
| 2026-04-30 21:16 | 32.55308 | -97.12457 | 4031 ft | 216 kts | 95° |
| 2026-04-30 21:16 | 32.55215 | -97.10657 | 4021 ft | 216 kts | 93° |
| 2026-04-30 21:16 | 32.55141 | -97.08871 | 4024 ft | 217 kts | 93° |
| 2026-04-30 21:17 | 32.55325 | -97.07119 | 4017 ft | 215 kts | 67° |
| 2026-04-30 21:17 | 32.56277 | -97.05776 | 4025 ft | 217 kts | 36° |
| 2026-04-30 21:17 | 32.57728 | -97.05325 | 4026 ft | 224 kts | 355° |
| 2026-04-30 21:17 | 32.59276 | -97.05635 | 4026 ft | 226 kts | 357° |
| 2026-04-30 21:18 | 32.60836 | -97.05657 | 4025 ft | 219 kts | 2° |
| 2026-04-30 21:18 | 32.62282 | -97.05627 | 4026 ft | 198 kts | 4° |
| 2026-04-30 21:18 | 32.63632 | -97.05612 | 4026 ft | 193 kts | 2° |
| 2026-04-30 21:18 | 32.64971 | -97.05602 | 4028 ft | 192 kts | 1° |
| 2026-04-30 21:19 | 32.66303 | -97.05594 | 4030 ft | 190 kts | 3° |
| 2026-04-30 21:19 | 32.67622 | -97.05587 | 4040 ft | 191 kts | 4° |
| 2026-04-30 21:19 | 32.68959 | -97.05581 | 4039 ft | 193 kts | 2° |
| 2026-04-30 21:19 | 32.70313 | -97.05572 | 3987 ft | 195 kts | 3° |
| 2026-04-30 21:20 | 32.71657 | -97.05567 | 3794 ft | 191 kts | 4° |
| 2026-04-30 21:20 | 32.72978 | -97.05560 | 3555 ft | 190 kts | 4° |
| 2026-04-30 21:20 | 32.74290 | -97.05553 | 3320 ft | 187 kts | 5° |
| 2026-04-30 21:20 | 32.75592 | -97.05547 | 3067 ft | 187 kts | 4° |
| 2026-04-30 21:21 | 32.76878 | -97.05540 | 2819 ft | 184 kts | 4° |
| 2026-04-30 21:21 | 32.78157 | -97.05534 | 2573 ft | 181 kts | 4° |
| 2026-04-30 21:21 | 32.80486 | -97.05524 | 2095 ft | 154 kts | 4° |
| 2026-04-30 21:22 | 32.81524 | -97.05519 | 1891 ft | 146 kts | 6° |
| 2026-04-30 21:22 | 32.84528 | -97.05500 | 1306 ft | 144 kts | 2° |
| 2026-04-30 21:23 | 32.85538 | -97.05498 | 1109 ft | 144 kts | 5° |
| 2026-04-30 21:23 | 32.86545 | -97.05492 | 925 ft | 145 kts | 2° |
| 2026-04-30 21:23 | 32.88560 | -97.05476 | 597 ft | 132 kts | 359° |
| 2026-04-30 21:24 | 32.89319 | -97.05473 | 601 ft | 84 kts | 0° |
| 2026-04-30 21:24 | 32.89726 | -97.05474 | 611 ft | 34 kts | 0° |
| 2026-04-30 21:24 | 32.89919 | -97.05409 | 612 ft | 27 kts | 29° |
| 2026-04-30 21:24 | 32.90049 | -97.05322 | 604 ft | 17 kts | 30° |
| 2026-04-30 21:25 | 32.90278 | -97.05275 | 599 ft | 17 kts | 0° |
| 2026-04-30 21:25 | 32.90381 | -97.05275 | 601 ft | 13 kts | 0° |
| 2026-04-30 21:25 | 32.90473 | -97.05274 | 602 ft | 15 kts | 0° |
| 2026-04-30 21:26 | 32.90703 | -97.05273 | 615 ft | 17 kts | 0° |
| 2026-04-30 21:26 | 32.90813 | -97.05272 | 627 ft | 13 kts | 0° |
| 2026-04-30 21:27 | 32.90981 | -97.05271 | 616 ft | 11 kts | 5° |
| 2026-04-30 21:27 | 32.91014 | -97.05205 | 615 ft | 10 kts | 91° |
| 2026-04-30 21:27 | 32.91013 | -97.05107 | 611 ft | 14 kts | 90° |
| 2026-04-30 21:28 | 32.91011 | -97.04873 | 609 ft | 14 kts | 90° |
| 2026-04-30 21:28 | 32.91011 | -97.04747 | 613 ft | 16 kts | 90° |
| 2026-04-30 21:28 | 32.91010 | -97.04468 | 600 ft | 17 kts | 90° |
| 2026-04-30 21:29 | 32.91010 | -97.04333 | 619 ft | 16 kts | 90° |
| 2026-04-30 21:29 | 32.91008 | -97.04021 | 609 ft | 0 kts | 93° |
| 2026-04-30 21:30 | 32.91008 | -97.03925 | 612 ft | 8 kts | 90° |
| 2026-04-30 21:31 | 32.91007 | -97.03748 | 599 ft | 19 kts | 93° |